sensor_id;sensor_type;location;lat;lon;timestamp;pressure;altitude;pressure_sealevel;temperature;humidity
60874;BME280;46715;40.642;-7.920;2023-02-26T00:00:18;95429.25;;;5.83;100.00
60874;BME280;46715;40.642;-7.920;2023-02-26T00:02:20;95431.88;;;5.88;100.00
60874;BME280;46715;40.642;-7.920;2023-02-26T00:04:21;95433.66;;;5.92;100.00
60874;BME280;46715;40.642;-7.920;2023-02-26T00:06:23;95437.53;;;5.90;100.00
60874;BME280;46715;40.642;-7.920;2023-02-26T00:08:24;95433.69;;;5.87;100.00
60874;BME280;46715;40.642;-7.920;2023-02-26T00:10:25;95439.09;;;5.91;100.00
60874;BME280;46715;40.642;-7.920;2023-02-26T00:12:26;95438.59;;;5.89;100.00
60874;BME280;46715;40.642;-7.920;2023-02-26T00:14:27;95443.50;;;5.90;100.00
60874;BME280;46715;40.642;-7.920;2023-02-26T00:16:33;95439.66;;;5.98;100.00
60874;BME280;46715;40.642;-7.920;2023-02-26T00:18:35;95443.28;;;6.02;100.00
60874;BME280;46715;40.642;-7.920;2023-02-26T00:20:36;95451.06;;;6.07;100.00
60874;BME280;46715;40.642;-7.920;2023-02-26T00:22:38;95442.50;;;6.12;100.00
60874;BME280;46715;40.642;-7.920;2023-02-26T00:24:39;95446.41;;;6.14;100.00
60874;BME280;46715;40.642;-7.920;2023-02-26T00:26:41;95452.09;;;6.22;100.00
60874;BME280;46715;40.642;-7.920;2023-02-26T00:28:42;95451.06;;;6.28;100.00
60874;BME280;46715;40.642;-7.920;2023-02-26T00:30:43;95454.19;;;6.35;100.00
60874;BME280;46715;40.642;-7.920;2023-02-26T00:32:45;95445.88;;;6.38;100.00
60874;BME280;46715;40.642;-7.920;2023-02-26T00:34:47;95439.94;;;6.43;100.00
60874;BME280;46715;40.642;-7.920;2023-02-26T00:41:00;95451.84;;;6.49;100.00
60874;BME280;46715;40.642;-7.920;2023-02-26T00:43:06;95449.78;;;6.51;100.00
60874;BME280;46715;40.642;-7.920;2023-02-26T00:45:09;95452.38;;;6.46;100.00
60874;BME280;46715;40.642;-7.920;2023-02-26T00:47:40;95456.78;;;6.40;100.00
60874;BME280;46715;40.642;-7.920;2023-02-26T00:50:12;95450.28;;;6.38;100.00
60874;BME280;46715;40.642;-7.920;2023-02-26T00:52:26;95456.50;;;6.42;100.00
60874;BME280;46715;40.642;-7.920;2023-02-26T00:54:29;95457.53;;;6.46;100.00
60874;BME280;46715;40.642;-7.920;2023-02-26T00:56:30;95457.53;;;6.46;100.00
60874;BME280;46715;40.642;-7.920;2023-02-26T00:58:31;95455.72;;;6.46;100.00
60874;BME280;46715;40.642;-7.920;2023-02-26T01:00:31;95463.22;;;6.48;100.00
60874;BME280;46715;40.642;-7.920;2023-02-26T01:02:36;95456.00;;;6.50;100.00
60874;BME280;46715;40.642;-7.920;2023-02-26T01:04:38;95463.75;;;6.50;100.00
60874;BME280;46715;40.642;-7.920;2023-02-26T01:06:53;95461.41;;;6.54;100.00
60874;BME280;46715;40.642;-7.920;2023-02-26T01:09:09;95469.19;;;6.59;100.00
60874;BME280;46715;40.642;-7.920;2023-02-26T01:11:13;95465.56;;;6.65;100.00
60874;BME280;46715;40.642;-7.920;2023-02-26T01:13:14;95467.09;;;6.66;100.00
60874;BME280;46715;40.642;-7.920;2023-02-26T01:15:16;95465.81;;;6.63;100.00
60874;BME280;46715;40.642;-7.920;2023-02-26T01:17:24;95464.78;;;6.64;100.00
60874;BME280;46715;40.642;-7.920;2023-02-26T01:19:36;95462.97;;;6.60;100.00
60874;BME280;46715;40.642;-7.920;2023-02-26T01:21:46;95460.13;;;6.51;100.00
60874;BME280;46715;40.642;-7.920;2023-02-26T01:23:51;95453.41;;;6.50;100.00
60874;BME280;46715;40.642;-7.920;2023-02-26T01:25:56;95457.25;;;6.58;100.00
60874;BME280;46715;40.642;-7.920;2023-02-26T01:27:58;95450.03;;;6.44;100.00
60874;BME280;46715;40.642;-7.920;2023-02-26T01:29:59;95451.56;;;6.30;100.00
60874;BME280;46715;40.642;-7.920;2023-02-26T01:32:23;95450.56;;;6.21;100.00
60874;BME280;46715;40.642;-7.920;2023-02-26T01:34:36;95456.78;;;6.09;100.00
60874;BME280;46715;40.642;-7.920;2023-02-26T01:36:48;95459.81;;;5.96;100.00
60874;BME280;46715;40.642;-7.920;2023-02-26T01:39:17;95461.63;;;5.90;100.00
60874;BME280;46715;40.642;-7.920;2023-02-26T01:43:49;95458.25;;;5.90;100.00
60874;BME280;46715;40.642;-7.920;2023-02-26T01:46:01;95458.78;;;5.97;100.00
60874;BME280;46715;40.642;-7.920;2023-02-26T01:48:10;95463.69;;;5.93;100.00
60874;BME280;46715;40.642;-7.920;2023-02-26T01:50:21;95462.94;;;5.93;100.00
60874;BME280;46715;40.642;-7.920;2023-02-26T01:54:34;95466.06;;;6.10;100.00
60874;BME280;46715;40.642;-7.920;2023-02-26T01:56:36;95469.44;;;6.11;100.00
60874;BME280;46715;40.642;-7.920;2023-02-26T01:58:38;95468.41;;;6.07;100.00
60874;BME280;46715;40.642;-7.920;2023-02-26T02:00:39;95464.00;;;6.18;100.00
60874;BME280;46715;40.642;-7.920;2023-02-26T02:02:40;95462.97;;;6.13;100.00
60874;BME280;46715;40.642;-7.920;2023-02-26T02:04:41;95465.56;;;6.19;100.00
60874;BME280;46715;40.642;-7.920;2023-02-26T02:06:43;95459.59;;;6.08;100.00
60874;BME280;46715;40.642;-7.920;2023-02-26T02:08:45;95461.66;;;6.01;100.00
60874;BME280;46715;40.642;-7.920;2023-02-26T02:10:47;95457.50;;;5.94;100.00
60874;BME280;46715;40.642;-7.920;2023-02-26T02:17:49;95446.03;;;5.59;100.00
60874;BME280;46715;40.642;-7.920;2023-02-26T02:20:20;95446.75;;;5.50;100.00
60874;BME280;46715;40.642;-7.920;2023-02-26T02:22:39;95446.22;;;5.42;100.00
60874;BME280;46715;40.642;-7.920;2023-02-26T02:35:19;95444.34;;;5.17;100.00
60874;BME280;46715;40.642;-7.920;2023-02-26T02:39:49;95447.09;;;5.00;100.00
60874;BME280;46715;40.642;-7.920;2023-02-26T02:41:54;95451.19;;;4.91;100.00
60874;BME280;46715;40.642;-7.920;2023-02-26T02:44:00;95451.13;;;4.81;100.00
60874;BME280;46715;40.642;-7.920;2023-02-26T02:46:05;95456.81;;;4.77;100.00
60874;BME280;46715;40.642;-7.920;2023-02-26T02:48:33;95468.66;;;4.73;100.00
60874;BME280;46715;40.642;-7.920;2023-02-26T02:50:36;95466.28;;;4.67;100.00
60874;BME280;46715;40.642;-7.920;2023-02-26T02:52:42;95465.50;;;4.66;100.00
60874;BME280;46715;40.642;-7.920;2023-02-26T02:57:01;95453.47;;;4.82;100.00
60874;BME280;46715;40.642;-7.920;2023-02-26T02:59:27;95452.19;;;4.85;100.00
60874;BME280;46715;40.642;-7.920;2023-02-26T03:01:32;95450.84;;;4.77;100.00
60874;BME280;46715;40.642;-7.920;2023-02-26T03:04:27;95456.31;;;4.81;100.00
60874;BME280;46715;40.642;-7.920;2023-02-26T03:06:04;95461.97;;;4.83;100.00
60874;BME280;46715;40.642;-7.920;2023-02-26T03:08:09;95460.97;;;4.84;100.00
60874;BME280;46715;40.642;-7.920;2023-02-26T03:10:11;95459.72;;;4.91;100.00
60874;BME280;46715;40.642;-7.920;2023-02-26T03:12:12;95456.91;;;4.98;100.00
60874;BME280;46715;40.642;-7.920;2023-02-26T03:14:13;95463.13;;;5.02;100.00
60874;BME280;46715;40.642;-7.920;2023-02-26T03:21:06;95457.31;;;5.27;100.00
60874;BME280;46715;40.642;-7.920;2023-02-26T03:23:14;95462.47;;;5.33;100.00
60874;BME280;46715;40.642;-7.920;2023-02-26T03:25:44;95465.09;;;5.38;100.00
60874;BME280;46715;40.642;-7.920;2023-02-26T03:30:32;95456.88;;;5.56;100.00
60874;BME280;46715;40.642;-7.920;2023-02-26T03:37:28;95463.91;;;5.81;100.00
60874;BME280;46715;40.642;-7.920;2023-02-26T03:39:37;95461.09;;;5.83;100.00
60874;BME280;46715;40.642;-7.920;2023-02-26T03:41:50;95454.63;;;5.91;100.00
60874;BME280;46715;40.642;-7.920;2023-02-26T03:44:08;95456.69;;;5.94;100.00
60874;BME280;46715;40.642;-7.920;2023-02-26T03:46:17;95452.56;;;5.93;100.00
60874;BME280;46715;40.642;-7.920;2023-02-26T03:48:25;95447.91;;;5.95;100.00
60874;BME280;46715;40.642;-7.920;2023-02-26T03:50:51;95450.00;;;5.93;100.00
60874;BME280;46715;40.642;-7.920;2023-02-26T03:53:24;95457.75;;;5.93;100.00
60874;BME280;46715;40.642;-7.920;2023-02-26T03:55:40;95454.63;;;5.86;100.00
60874;BME280;46715;40.642;-7.920;2023-02-26T03:58:05;95449.72;;;5.79;100.00
60874;BME280;46715;40.642;-7.920;2023-02-26T04:00:26;95454.09;;;5.73;100.00
60874;BME280;46715;40.642;-7.920;2023-02-26T04:02:36;95457.16;;;5.60;100.00
60874;BME280;46715;40.642;-7.920;2023-02-26T04:04:54;95455.81;;;5.42;100.00
60874;BME280;46715;40.642;-7.920;2023-02-26T04:06:56;95458.59;;;5.30;100.00
60874;BME280;46715;40.642;-7.920;2023-02-26T04:08:57;95461.91;;;5.20;100.00
60874;BME280;46715;40.642;-7.920;2023-02-26T04:11:20;95471.75;;;5.18;100.00
60874;BME280;46715;40.642;-7.920;2023-02-26T04:13:20;95471.66;;;5.03;100.00
60874;BME280;46715;40.642;-7.920;2023-02-26T04:15:22;95473.38;;;4.87;100.00
60874;BME280;46715;40.642;-7.920;2023-02-26T04:17:23;95471.00;;;4.80;100.00
60874;BME280;46715;40.642;-7.920;2023-02-26T04:19:24;95472.50;;;4.71;100.00
60874;BME280;46715;40.642;-7.920;2023-02-26T04:21:26;95476.31;;;4.63;100.00
60874;BME280;46715;40.642;-7.920;2023-02-26T04:23:27;95473.19;;;4.56;100.00
60874;BME280;46715;40.642;-7.920;2023-02-26T04:25:28;95470.81;;;4.49;100.00
60874;BME280;46715;40.642;-7.920;2023-02-26T04:27:30;95469.47;;;4.41;100.00
60874;BME280;46715;40.642;-7.920;2023-02-26T04:29:31;95475.59;;;4.35;100.00
60874;BME280;46715;40.642;-7.920;2023-02-26T04:31:31;95474.53;;;4.31;100.00
60874;BME280;46715;40.642;-7.920;2023-02-26T04:33:33;95479.66;;;4.26;100.00
60874;BME280;46715;40.642;-7.920;2023-02-26T04:35:34;95471.59;;;4.17;100.00
60874;BME280;46715;40.642;-7.920;2023-02-26T04:37:35;95484.69;;;4.10;100.00
60874;BME280;46715;40.642;-7.920;2023-02-26T04:39:36;95482.78;;;4.01;100.00
60874;BME280;46715;40.642;-7.920;2023-02-26T04:41:38;95481.69;;;3.91;100.00
60874;BME280;46715;40.642;-7.920;2023-02-26T04:43:39;95486.53;;;3.88;100.00
60874;BME280;46715;40.642;-7.920;2023-02-26T04:45:53;95488.81;;;3.84;100.00
60874;BME280;46715;40.642;-7.920;2023-02-26T04:47:54;95485.47;;;3.84;100.00
60874;BME280;46715;40.642;-7.920;2023-02-26T04:49:55;95486.72;;;3.81;100.00
60874;BME280;46715;40.642;-7.920;2023-02-26T04:51:56;95485.16;;;3.80;100.00
60874;BME280;46715;40.642;-7.920;2023-02-26T04:53:57;95486.44;;;3.78;100.00
60874;BME280;46715;40.642;-7.920;2023-02-26T04:55:58;95486.91;;;3.74;100.00
60874;BME280;46715;40.642;-7.920;2023-02-26T04:57:59;95491.22;;;3.69;100.00
60874;BME280;46715;40.642;-7.920;2023-02-26T05:00:00;95490.97;;;3.65;100.00
60874;BME280;46715;40.642;-7.920;2023-02-26T05:02:07;95502.81;;;3.66;100.00
60874;BME280;46715;40.642;-7.920;2023-02-26T05:04:13;95501.22;;;3.60;100.00
60874;BME280;46715;40.642;-7.920;2023-02-26T05:06:17;95505.03;;;3.57;100.00
60874;BME280;46715;40.642;-7.920;2023-02-26T05:08:18;95508.09;;;3.54;100.00
60874;BME280;46715;40.642;-7.920;2023-02-26T05:10:20;95513.78;;;3.56;100.00
60874;BME280;46715;40.642;-7.920;2023-02-26T05:12:20;95506.06;;;3.56;100.00
60874;BME280;46715;40.642;-7.920;2023-02-26T05:14:22;95511.78;;;3.64;100.00
60874;BME280;46715;40.642;-7.920;2023-02-26T05:16:23;95512.34;;;3.66;100.00
60874;BME280;46715;40.642;-7.920;2023-02-26T05:18:23;95509.22;;;3.64;100.00
60874;BME280;46715;40.642;-7.920;2023-02-26T05:20:24;95512.59;;;3.64;100.00
60874;BME280;46715;40.642;-7.920;2023-02-26T05:22:25;95509.22;;;3.64;100.00
60874;BME280;46715;40.642;-7.920;2023-02-26T05:24:26;95503.53;;;3.62;100.00
60874;BME280;46715;40.642;-7.920;2023-02-26T05:26:27;95516.13;;;3.58;100.00
60874;BME280;46715;40.642;-7.920;2023-02-26T05:28:28;95511.19;;;3.56;100.00
60874;BME280;46715;40.642;-7.920;2023-02-26T05:30:29;95522.25;;;3.52;100.00
60874;BME280;46715;40.642;-7.920;2023-02-26T05:32:30;95524.50;;;3.48;100.00
60874;BME280;46715;40.642;-7.920;2023-02-26T05:34:31;95524.47;;;3.43;100.00
60874;BME280;46715;40.642;-7.920;2023-02-26T05:36:31;95521.09;;;3.42;100.00
60874;BME280;46715;40.642;-7.920;2023-02-26T05:38:32;95521.09;;;3.42;100.00
60874;BME280;46715;40.642;-7.920;2023-02-26T05:40:33;95521.50;;;3.34;100.00
60874;BME280;46715;40.642;-7.920;2023-02-26T05:42:34;95521.06;;;3.37;100.00
60874;BME280;46715;40.642;-7.920;2023-02-26T05:44:34;95523.84;;;3.36;100.00
60874;BME280;46715;40.642;-7.920;2023-02-26T05:46:35;95528.72;;;3.32;100.00
60874;BME280;46715;40.642;-7.920;2023-02-26T05:48:36;95529.44;;;3.28;100.00
60874;BME280;46715;40.642;-7.920;2023-02-26T05:50:37;95526.78;;;3.22;100.00
60874;BME280;46715;40.642;-7.920;2023-02-26T05:52:38;95522.47;;;3.28;100.00
60874;BME280;46715;40.642;-7.920;2023-02-26T05:54:39;95516.31;;;3.29;100.00
60874;BME280;46715;40.642;-7.920;2023-02-26T05:56:39;95521.50;;;3.34;100.00
60874;BME280;46715;40.642;-7.920;2023-02-26T05:58:41;95523.06;;;3.35;100.00
60874;BME280;46715;40.642;-7.920;2023-02-26T06:00:42;95512.44;;;3.32;100.00
60874;BME280;46715;40.642;-7.920;2023-02-26T06:02:43;95519.41;;;3.31;100.00
60874;BME280;46715;40.642;-7.920;2023-02-26T06:04:43;95518.56;;;3.26;100.00
60874;BME280;46715;40.642;-7.920;2023-02-26T06:06:44;95521.03;;;3.15;100.00
60874;BME280;46715;40.642;-7.920;2023-02-26T06:08:45;95525.09;;;3.11;100.00
60874;BME280;46715;40.642;-7.920;2023-02-26T06:10:46;95521.19;;;3.09;100.00
60874;BME280;46715;40.642;-7.920;2023-02-26T06:12:47;95516.28;;;3.07;100.00
60874;BME280;46715;40.642;-7.920;2023-02-26T06:14:47;95517.28;;;3.06;100.00
60874;BME280;46715;40.642;-7.920;2023-02-26T06:16:48;95517.28;;;3.06;100.00
60874;BME280;46715;40.642;-7.920;2023-02-26T06:18:49;95517.81;;;3.08;100.00
60874;BME280;46715;40.642;-7.920;2023-02-26T06:20:50;95524.63;;;3.14;100.00
60874;BME280;46715;40.642;-7.920;2023-02-26T06:22:51;95521.25;;;3.14;100.00
60874;BME280;46715;40.642;-7.920;2023-02-26T06:24:51;95522.03;;;3.14;100.00
60874;BME280;46715;40.642;-7.920;2023-02-26T06:26:54;95531.84;;;3.17;100.00
60874;BME280;46715;40.642;-7.920;2023-02-26T06:28:55;95539.81;;;3.16;100.00
60874;BME280;46715;40.642;-7.920;2023-02-26T06:30:56;95538.34;;;3.20;100.00
60874;BME280;46715;40.642;-7.920;2023-02-26T06:32:57;95535.94;;;3.13;100.00
60874;BME280;46715;40.642;-7.920;2023-02-26T06:34:58;95545.94;;;3.10;100.00
60874;BME280;46715;40.642;-7.920;2023-02-26T06:36:59;95544.78;;;3.00;100.00
60874;BME280;46715;40.642;-7.920;2023-02-26T06:39:00;95546.50;;;2.95;100.00
60874;BME280;46715;40.642;-7.920;2023-02-26T06:41:01;95543.84;;;2.89;100.00
60874;BME280;46715;40.642;-7.920;2023-02-26T06:43:01;95539.94;;;2.87;100.00
60874;BME280;46715;40.642;-7.920;2023-02-26T06:45:02;95544.31;;;2.86;100.00
60874;BME280;46715;40.642;-7.920;2023-02-26T06:47:03;95538.56;;;2.79;100.00
60874;BME280;46715;40.642;-7.920;2023-02-26T06:49:04;95533.31;;;2.74;100.00
60874;BME280;46715;40.642;-7.920;2023-02-26T06:51:06;95528.41;;;2.72;100.00
60874;BME280;46715;40.642;-7.920;2023-02-26T06:53:06;95539.78;;;2.77;100.00
60874;BME280;46715;40.642;-7.920;2023-02-26T06:55:07;95544.16;;;2.76;100.00
60874;BME280;46715;40.642;-7.920;2023-02-26T06:57:08;95549.38;;;2.81;100.00
60874;BME280;46715;40.642;-7.920;2023-02-26T06:59:09;95549.22;;;2.71;100.00
60874;BME280;46715;40.642;-7.920;2023-02-26T07:01:10;95550.72;;;2.67;100.00
60874;BME280;46715;40.642;-7.920;2023-02-26T07:03:12;95555.06;;;2.66;100.00
60874;BME280;46715;40.642;-7.920;2023-02-26T07:05:13;95558.97;;;2.69;100.00
60874;BME280;46715;40.642;-7.920;2023-02-26T07:07:15;95558.50;;;2.89;100.00
60874;BME280;46715;40.642;-7.920;2023-02-26T07:09:15;95558.41;;;3.01;100.00
60874;BME280;46715;40.642;-7.920;2023-02-26T07:11:16;95558.34;;;3.13;100.00
60874;BME280;46715;40.642;-7.920;2023-02-26T07:13:17;95562.38;;;3.26;100.00
60874;BME280;46715;40.642;-7.920;2023-02-26T07:15:18;95568.97;;;3.38;100.00
60874;BME280;46715;40.642;-7.920;2023-02-26T07:17:19;95573.03;;;3.51;100.00
60874;BME280;46715;40.642;-7.920;2023-02-26T07:19:20;95574.53;;;3.69;100.00
60874;BME280;46715;40.642;-7.920;2023-02-26T07:21:21;95579.31;;;3.83;100.00
60874;BME280;46715;40.642;-7.920;2023-02-26T07:23:21;95578.13;;;3.90;100.00
60874;BME280;46715;40.642;-7.920;2023-02-26T07:25:22;95573.81;;;3.96;100.00
60874;BME280;46715;40.642;-7.920;2023-02-26T07:27:24;95570.25;;;4.02;100.00
60874;BME280;46715;40.642;-7.920;2023-02-26T07:29:24;95573.97;;;4.12;100.00
60874;BME280;46715;40.642;-7.920;2023-02-26T07:31:25;95583.28;;;4.13;100.00
60874;BME280;46715;40.642;-7.920;2023-02-26T07:33:26;95578.13;;;4.18;100.00
60874;BME280;46715;40.642;-7.920;2023-02-26T07:35:28;95582.69;;;4.33;100.00
60874;BME280;46715;40.642;-7.920;2023-02-26T07:37:29;95588.72;;;4.43;100.00
60874;BME280;46715;40.642;-7.920;2023-02-26T07:39:30;95599.00;;;4.66;100.00
60874;BME280;46715;40.642;-7.920;2023-02-26T07:41:31;95607.56;;;4.71;100.00
60874;BME280;46715;40.642;-7.920;2023-02-26T07:43:33;95607.00;;;4.97;100.00
60874;BME280;46715;40.642;-7.920;2023-02-26T07:45:33;95597.56;;;5.55;100.00
60874;BME280;46715;40.642;-7.920;2023-02-26T07:47:34;95604.31;;;6.30;100.00
60874;BME280;46715;40.642;-7.920;2023-02-26T07:49:35;95602.59;;;6.82;100.00
60874;BME280;46715;40.642;-7.920;2023-02-26T07:51:36;95602.81;;;7.42;100.00
60874;BME280;46715;40.642;-7.920;2023-02-26T07:53:37;95612.94;;;8.25;100.00
60874;BME280;46715;40.642;-7.920;2023-02-26T07:55:38;95621.66;;;8.89;97.37
60874;BME280;46715;40.642;-7.920;2023-02-26T07:57:39;95617.50;;;9.52;97.55
60874;BME280;46715;40.642;-7.920;2023-02-26T07:59:40;95619.16;;;10.15;92.46
60874;BME280;46715;40.642;-7.920;2023-02-26T08:01:40;95618.72;;;10.70;87.59
60874;BME280;46715;40.642;-7.920;2023-02-26T08:03:41;95629.81;;;11.28;83.39
60874;BME280;46715;40.642;-7.920;2023-02-26T08:05:42;95632.03;;;11.82;81.28
60874;BME280;46715;40.642;-7.920;2023-02-26T08:07:43;95635.13;;;12.39;76.32
60874;BME280;46715;40.642;-7.920;2023-02-26T08:09:43;95644.84;;;12.98;78.72
60874;BME280;46715;40.642;-7.920;2023-02-26T08:11:44;95640.72;;;13.51;75.77
60874;BME280;46715;40.642;-7.920;2023-02-26T08:13:46;95642.31;;;13.92;73.60
60874;BME280;46715;40.642;-7.920;2023-02-26T08:15:47;95643.50;;;14.44;71.67
60874;BME280;46715;40.642;-7.920;2023-02-26T08:17:47;95653.59;;;14.68;69.74
60874;BME280;46715;40.642;-7.920;2023-02-26T08:19:51;95650.03;;;15.08;69.23
60874;BME280;46715;40.642;-7.920;2023-02-26T08:21:53;95646.84;;;15.58;67.96
60874;BME280;46715;40.642;-7.920;2023-02-26T08:23:54;95645.44;;;16.08;55.96
60874;BME280;46715;40.642;-7.920;2023-02-26T08:26:02;95637.34;;;16.22;52.57
60874;BME280;46715;40.642;-7.920;2023-02-26T08:28:04;95634.41;;;15.85;48.18
60874;BME280;46715;40.642;-7.920;2023-02-26T08:30:05;95653.56;;;15.29;52.58
60874;BME280;46715;40.642;-7.920;2023-02-26T08:32:07;95647.84;;;15.27;48.96
60874;BME280;46715;40.642;-7.920;2023-02-26T08:34:08;95658.38;;;15.01;52.08
60874;BME280;46715;40.642;-7.920;2023-02-26T08:36:10;95653.13;;;14.83;51.16
60874;BME280;46715;40.642;-7.920;2023-02-26T08:38:11;95667.59;;;15.33;54.74
60874;BME280;46715;40.642;-7.920;2023-02-26T08:40:12;95665.53;;;15.74;53.14
60874;BME280;46715;40.642;-7.920;2023-02-26T08:42:13;95665.63;;;15.95;52.07
60874;BME280;46715;40.642;-7.920;2023-02-26T08:44:16;95662.41;;;16.49;52.54
60874;BME280;46715;40.642;-7.920;2023-02-26T08:46:16;95660.94;;;16.82;48.88
60874;BME280;46715;40.642;-7.920;2023-02-26T08:48:19;95662.91;;;16.94;51.80
60874;BME280;46715;40.642;-7.920;2023-02-26T08:50:20;95660.00;;;17.41;52.35
60874;BME280;46715;40.642;-7.920;2023-02-26T08:52:21;95661.88;;;18.11;46.53
60874;BME280;46715;40.642;-7.920;2023-02-26T08:54:21;95669.16;;;18.02;45.97
60874;BME280;46715;40.642;-7.920;2023-02-26T08:56:23;95665.19;;;18.08;44.64
60874;BME280;46715;40.642;-7.920;2023-02-26T08:58:24;95665.94;;;18.21;45.52
60874;BME280;46715;40.642;-7.920;2023-02-26T09:00:24;95666.38;;;18.48;44.64
60874;BME280;46715;40.642;-7.920;2023-02-26T09:02:25;95666.97;;;18.82;42.52
60874;BME280;46715;40.642;-7.920;2023-02-26T09:04:26;95670.47;;;18.86;43.57
60874;BME280;46715;40.642;-7.920;2023-02-26T09:06:28;95665.06;;;18.82;42.99
60874;BME280;46715;40.642;-7.920;2023-02-26T09:08:29;95662.88;;;18.84;43.11
60874;BME280;46715;40.642;-7.920;2023-02-26T09:10:33;95673.41;;;19.09;43.77
60874;BME280;46715;40.642;-7.920;2023-02-26T09:12:34;95675.72;;;19.55;43.38
60874;BME280;46715;40.642;-7.920;2023-02-26T09:14:37;95666.31;;;19.86;42.29
60874;BME280;46715;40.642;-7.920;2023-02-26T09:16:39;95680.22;;;19.99;39.79
60874;BME280;46715;40.642;-7.920;2023-02-26T09:18:40;95686.63;;;19.82;40.47
60874;BME280;46715;40.642;-7.920;2023-02-26T09:20:42;95697.81;;;19.91;39.84
60874;BME280;46715;40.642;-7.920;2023-02-26T09:22:43;95693.56;;;19.01;40.58
60874;BME280;46715;40.642;-7.920;2023-02-26T09:24:44;95699.88;;;18.72;41.52
60874;BME280;46715;40.642;-7.920;2023-02-26T09:26:45;95698.25;;;18.05;42.29
60874;BME280;46715;40.642;-7.920;2023-02-26T09:28:47;95686.03;;;17.43;44.15
60874;BME280;46715;40.642;-7.920;2023-02-26T09:30:51;95689.81;;;17.66;44.92
60874;BME280;46715;40.642;-7.920;2023-02-26T09:32:52;95696.50;;;17.97;45.16
60874;BME280;46715;40.642;-7.920;2023-02-26T09:34:53;95701.53;;;18.64;42.46
60874;BME280;46715;40.642;-7.920;2023-02-26T09:36:54;95688.38;;;18.39;42.79
60874;BME280;46715;40.642;-7.920;2023-02-26T09:38:55;95701.03;;;18.34;43.21
60874;BME280;46715;40.642;-7.920;2023-02-26T09:41:15;95706.84;;;18.52;43.78
60874;BME280;46715;40.642;-7.920;2023-02-26T09:45:42;95702.13;;;18.57;41.47
60874;BME280;46715;40.642;-7.920;2023-02-26T09:47:49;95705.09;;;18.44;39.96
60874;BME280;46715;40.642;-7.920;2023-02-26T09:49:57;95715.53;;;18.40;40.67
60874;BME280;46715;40.642;-7.920;2023-02-26T09:52:04;95708.66;;;17.44;42.37
60874;BME280;46715;40.642;-7.920;2023-02-26T09:54:17;95716.84;;;18.09;42.35
60874;BME280;46715;40.642;-7.920;2023-02-26T09:56:22;95715.63;;;18.68;40.99
60874;BME280;46715;40.642;-7.920;2023-02-26T09:58:29;95717.78;;;19.03;38.80
60874;BME280;46715;40.642;-7.920;2023-02-26T10:02:57;95713.84;;;18.97;39.72
60874;BME280;46715;40.642;-7.920;2023-02-26T10:11:52;95729.00;;;16.71;43.40
60874;BME280;46715;40.642;-7.920;2023-02-26T10:14:11;95733.38;;;15.72;47.10
60874;BME280;46715;40.642;-7.920;2023-02-26T10:16:17;95736.25;;;15.14;48.84
60874;BME280;46715;40.642;-7.920;2023-02-26T10:18:25;95733.56;;;14.71;49.93
60874;BME280;46715;40.642;-7.920;2023-02-26T10:25:06;95737.38;;;13.61;50.61
60874;BME280;46715;40.642;-7.920;2023-02-26T10:27:15;95739.59;;;12.72;53.78
60874;BME280;46715;40.642;-7.920;2023-02-26T10:31:51;95744.63;;;12.13;56.43
60874;BME280;46715;40.642;-7.920;2023-02-26T10:36:23;95745.00;;;12.76;54.50
60874;BME280;46715;40.642;-7.920;2023-02-26T10:38:27;95747.69;;;12.85;56.58
60874;BME280;46715;40.642;-7.920;2023-02-26T10:40:46;95741.59;;;12.89;54.80
60874;BME280;46715;40.642;-7.920;2023-02-26T10:42:54;95743.66;;;12.78;54.03
60874;BME280;46715;40.642;-7.920;2023-02-26T10:47:35;95742.09;;;12.77;54.13
60874;BME280;46715;40.642;-7.920;2023-02-26T10:51:50;95748.09;;;12.78;54.13
60874;BME280;46715;40.642;-7.920;2023-02-26T10:53:57;95747.41;;;12.86;53.64
60874;BME280;46715;40.642;-7.920;2023-02-26T10:56:21;95755.53;;;12.99;54.04
60874;BME280;46715;40.642;-7.920;2023-02-26T10:58:28;95754.25;;;12.45;56.27
60874;BME280;46715;40.642;-7.920;2023-02-26T11:00:29;95756.16;;;11.79;58.67
60874;BME280;46715;40.642;-7.920;2023-02-26T11:02:43;95749.38;;;11.78;57.51
60874;BME280;46715;40.642;-7.920;2023-02-26T11:04:45;95751.78;;;12.21;58.38
60874;BME280;46715;40.642;-7.920;2023-02-26T11:08:52;95766.03;;;12.57;56.67
60874;BME280;46715;40.642;-7.920;2023-02-26T11:10:56;95761.38;;;12.82;56.96
60874;BME280;46715;40.642;-7.920;2023-02-26T11:12:57;95758.13;;;13.12;53.53
60874;BME280;46715;40.642;-7.920;2023-02-26T11:14:59;95761.13;;;13.06;57.81
60874;BME280;46715;40.642;-7.920;2023-02-26T11:17:06;95760.53;;;12.44;57.84
60874;BME280;46715;40.642;-7.920;2023-02-26T11:19:12;95765.47;;;12.60;56.10
60874;BME280;46715;40.642;-7.920;2023-02-26T11:21:24;95754.28;;;12.82;55.99
60874;BME280;46715;40.642;-7.920;2023-02-26T11:23:29;95755.88;;;12.69;55.33
60874;BME280;46715;40.642;-7.920;2023-02-26T11:25:31;95762.06;;;12.59;56.05
60874;BME280;46715;40.642;-7.920;2023-02-26T11:27:36;95764.19;;;12.71;56.75
60874;BME280;46715;40.642;-7.920;2023-02-26T11:29:40;95763.72;;;12.55;55.93
60874;BME280;46715;40.642;-7.920;2023-02-26T11:31:41;95759.44;;;12.87;55.56
60874;BME280;46715;40.642;-7.920;2023-02-26T11:35:57;95757.88;;;13.23;54.34
60874;BME280;46715;40.642;-7.920;2023-02-26T11:38:00;95758.72;;;13.46;54.07
60874;BME280;46715;40.642;-7.920;2023-02-26T11:40:47;95766.41;;;13.65;53.17
60874;BME280;46715;40.642;-7.920;2023-02-26T11:42:55;95753.53;;;13.77;53.17
60874;BME280;46715;40.642;-7.920;2023-02-26T11:44:57;95753.16;;;13.93;53.20
60874;BME280;46715;40.642;-7.920;2023-02-26T11:47:02;95754.63;;;14.08;51.11
60874;BME280;46715;40.642;-7.920;2023-02-26T11:49:04;95759.59;;;14.18;49.98
60874;BME280;46715;40.642;-7.920;2023-02-26T11:51:07;95753.06;;;13.53;50.47
60874;BME280;46715;40.642;-7.920;2023-02-26T11:53:19;95758.16;;;13.35;53.22
60874;BME280;46715;40.642;-7.920;2023-02-26T11:55:34;95759.91;;;13.40;52.43
60874;BME280;46715;40.642;-7.920;2023-02-26T11:57:36;95758.53;;;13.65;51.67
60874;BME280;46715;40.642;-7.920;2023-02-26T11:59:47;95752.88;;;14.03;51.15
60874;BME280;46715;40.642;-7.920;2023-02-26T12:01:49;95754.97;;;14.24;51.34